sensor_id;sensor_type;location;lat;lon;timestamp;P1;durP1;ratioP1;P2;durP2;ratioP2
48925;SDS011;39838;59.938;30.642;2024-01-27T00:00:51;31.15;;;12.75;;
48925;SDS011;39838;59.938;30.642;2024-01-27T00:03:19;28.92;;;12.60;;
48925;SDS011;39838;59.938;30.642;2024-01-27T00:05:46;28.20;;;12.80;;
48925;SDS011;39838;59.938;30.642;2024-01-27T00:08:13;31.27;;;13.07;;
48925;SDS011;39838;59.938;30.642;2024-01-27T00:10:42;29.98;;;11.70;;
48925;SDS011;39838;59.938;30.642;2024-01-27T00:13:11;29.35;;;11.98;;
48925;SDS011;39838;59.938;30.642;2024-01-27T00:15:38;27.73;;;11.55;;
48925;SDS011;39838;59.938;30.642;2024-01-27T00:18:06;26.50;;;12.23;;
48925;SDS011;39838;59.938;30.642;2024-01-27T00:20:34;33.05;;;12.43;;
48925;SDS011;39838;59.938;30.642;2024-01-27T00:23:01;23.85;;;12.18;;
48925;SDS011;39838;59.938;30.642;2024-01-27T00:25:29;26.40;;;12.68;;
48925;SDS011;39838;59.938;30.642;2024-01-27T00:27:58;26.08;;;12.05;;
48925;SDS011;39838;59.938;30.642;2024-01-27T00:30:25;23.63;;;12.15;;
48925;SDS011;39838;59.938;30.642;2024-01-27T00:32:52;25.65;;;11.13;;
48925;SDS011;39838;59.938;30.642;2024-01-27T00:35:20;24.15;;;12.18;;
48925;SDS011;39838;59.938;30.642;2024-01-27T00:37:47;27.55;;;12.43;;
48925;SDS011;39838;59.938;30.642;2024-01-27T00:40:14;25.13;;;11.73;;
48925;SDS011;39838;59.938;30.642;2024-01-27T00:42:42;22.50;;;11.55;;
48925;SDS011;39838;59.938;30.642;2024-01-27T00:45:10;21.98;;;11.25;;
48925;SDS011;39838;59.938;30.642;2024-01-27T00:47:38;25.05;;;11.25;;
48925;SDS011;39838;59.938;30.642;2024-01-27T00:50:05;23.52;;;11.80;;
48925;SDS011;39838;59.938;30.642;2024-01-27T00:52:34;21.60;;;10.60;;
48925;SDS011;39838;59.938;30.642;2024-01-27T00:55:01;24.17;;;10.95;;
48925;SDS011;39838;59.938;30.642;2024-01-27T00:57:29;22.65;;;10.98;;
48925;SDS011;39838;59.938;30.642;2024-01-27T00:59:56;26.17;;;9.77;;
48925;SDS011;39838;59.938;30.642;2024-01-27T01:02:25;20.15;;;9.43;;
48925;SDS011;39838;59.938;30.642;2024-01-27T01:04:53;19.58;;;9.48;;
48925;SDS011;39838;59.938;30.642;2024-01-27T01:07:20;17.55;;;9.63;;
48925;SDS011;39838;59.938;30.642;2024-01-27T01:09:48;16.80;;;9.60;;
48925;SDS011;39838;59.938;30.642;2024-01-27T01:12:15;19.08;;;9.20;;
48925;SDS011;39838;59.938;30.642;2024-01-27T01:14:43;17.38;;;9.07;;
48925;SDS011;39838;59.938;30.642;2024-01-27T01:17:10;17.05;;;9.27;;
48925;SDS011;39838;59.938;30.642;2024-01-27T01:19:39;17.83;;;9.20;;
48925;SDS011;39838;59.938;30.642;2024-01-27T01:22:07;19.48;;;9.85;;
48925;SDS011;39838;59.938;30.642;2024-01-27T01:24:35;20.13;;;9.73;;
48925;SDS011;39838;59.938;30.642;2024-01-27T01:27:02;23.33;;;10.65;;
48925;SDS011;39838;59.938;30.642;2024-01-27T01:29:30;19.98;;;10.43;;
48925;SDS011;39838;59.938;30.642;2024-01-27T01:31:57;20.08;;;10.45;;
48925;SDS011;39838;59.938;30.642;2024-01-27T01:34:24;20.00;;;10.50;;
48925;SDS011;39838;59.938;30.642;2024-01-27T01:36:53;19.73;;;10.38;;
48925;SDS011;39838;59.938;30.642;2024-01-27T01:39:22;19.83;;;9.73;;
48925;SDS011;39838;59.938;30.642;2024-01-27T01:41:50;20.83;;;9.95;;
48925;SDS011;39838;59.938;30.642;2024-01-27T01:44:17;20.70;;;10.43;;
48925;SDS011;39838;59.938;30.642;2024-01-27T01:46:44;21.02;;;11.30;;
48925;SDS011;39838;59.938;30.642;2024-01-27T01:49:12;21.15;;;9.60;;
48925;SDS011;39838;59.938;30.642;2024-01-27T01:51:39;20.38;;;9.65;;
48925;SDS011;39838;59.938;30.642;2024-01-27T01:54:09;18.05;;;9.98;;
48925;SDS011;39838;59.938;30.642;2024-01-27T01:56:37;18.92;;;9.98;;
48925;SDS011;39838;59.938;30.642;2024-01-27T01:59:04;19.67;;;10.30;;
48925;SDS011;39838;59.938;30.642;2024-01-27T02:01:31;18.48;;;9.38;;
48925;SDS011;39838;59.938;30.642;2024-01-27T02:03:58;20.90;;;10.23;;
48925;SDS011;39838;59.938;30.642;2024-01-27T02:06:26;21.05;;;9.00;;
48925;SDS011;39838;59.938;30.642;2024-01-27T02:08:53;20.90;;;9.63;;
48925;SDS011;39838;59.938;30.642;2024-01-27T02:11:22;19.25;;;10.00;;
48925;SDS011;39838;59.938;30.642;2024-01-27T02:13:50;20.48;;;9.70;;
48925;SDS011;39838;59.938;30.642;2024-01-27T02:16:17;18.65;;;9.63;;
48925;SDS011;39838;59.938;30.642;2024-01-27T02:18:45;19.65;;;9.48;;
48925;SDS011;39838;59.938;30.642;2024-01-27T02:21:13;24.90;;;10.48;;
48925;SDS011;39838;59.938;30.642;2024-01-27T02:23:40;22.58;;;10.45;;
48925;SDS011;39838;59.938;30.642;2024-01-27T02:26:09;21.70;;;10.20;;
48925;SDS011;39838;59.938;30.642;2024-01-27T02:28:36;21.40;;;10.70;;
48925;SDS011;39838;59.938;30.642;2024-01-27T02:31:03;20.98;;;10.25;;
48925;SDS011;39838;59.938;30.642;2024-01-27T02:33:31;18.63;;;8.98;;
48925;SDS011;39838;59.938;30.642;2024-01-27T02:35:58;19.35;;;9.60;;
48925;SDS011;39838;59.938;30.642;2024-01-27T02:38:25;20.30;;;9.55;;
48925;SDS011;39838;59.938;30.642;2024-01-27T02:40:52;18.73;;;8.80;;
48925;SDS011;39838;59.938;30.642;2024-01-27T02:43:21;18.75;;;8.48;;
48925;SDS011;39838;59.938;30.642;2024-01-27T02:45:48;17.85;;;8.75;;
48925;SDS011;39838;59.938;30.642;2024-01-27T02:48:16;20.60;;;8.90;;
48925;SDS011;39838;59.938;30.642;2024-01-27T02:50:43;18.05;;;8.60;;
48925;SDS011;39838;59.938;30.642;2024-01-27T02:53:10;20.25;;;9.40;;
48925;SDS011;39838;59.938;30.642;2024-01-27T02:55:38;18.52;;;8.48;;
48925;SDS011;39838;59.938;30.642;2024-01-27T02:58:05;17.25;;;8.50;;
48925;SDS011;39838;59.938;30.642;2024-01-27T03:00:34;17.70;;;8.55;;
48925;SDS011;39838;59.938;30.642;2024-01-27T03:03:01;20.23;;;9.40;;
48925;SDS011;39838;59.938;30.642;2024-01-27T03:05:28;17.67;;;8.60;;
48925;SDS011;39838;59.938;30.642;2024-01-27T03:07:55;19.52;;;8.95;;
48925;SDS011;39838;59.938;30.642;2024-01-27T03:10:23;20.33;;;9.65;;
48925;SDS011;39838;59.938;30.642;2024-01-27T03:12:50;22.73;;;9.75;;
48925;SDS011;39838;59.938;30.642;2024-01-27T03:15:17;19.50;;;9.27;;
48925;SDS011;39838;59.938;30.642;2024-01-27T03:17:46;20.45;;;10.40;;
48925;SDS011;39838;59.938;30.642;2024-01-27T03:20:13;21.42;;;9.68;;
48925;SDS011;39838;59.938;30.642;2024-01-27T03:22:41;20.08;;;10.40;;
48925;SDS011;39838;59.938;30.642;2024-01-27T03:25:09;22.63;;;10.60;;
48925;SDS011;39838;59.938;30.642;2024-01-27T03:27:37;21.88;;;10.75;;
48925;SDS011;39838;59.938;30.642;2024-01-27T03:30:05;21.90;;;9.88;;
48925;SDS011;39838;59.938;30.642;2024-01-27T03:32:34;24.17;;;10.80;;
48925;SDS011;39838;59.938;30.642;2024-01-27T03:35:03;22.20;;;10.25;;
48925;SDS011;39838;59.938;30.642;2024-01-27T03:37:31;21.92;;;10.20;;
48925;SDS011;39838;59.938;30.642;2024-01-27T03:39:59;19.35;;;9.85;;
48925;SDS011;39838;59.938;30.642;2024-01-27T03:42:26;20.75;;;9.80;;
48925;SDS011;39838;59.938;30.642;2024-01-27T03:44:53;22.55;;;10.18;;
48925;SDS011;39838;59.938;30.642;2024-01-27T03:47:21;20.42;;;9.55;;
48925;SDS011;39838;59.938;30.642;2024-01-27T03:49:48;22.27;;;9.50;;
48925;SDS011;39838;59.938;30.642;2024-01-27T03:52:17;21.55;;;10.07;;
48925;SDS011;39838;59.938;30.642;2024-01-27T03:54:44;21.52;;;9.63;;
48925;SDS011;39838;59.938;30.642;2024-01-27T03:57:11;22.90;;;10.18;;
48925;SDS011;39838;59.938;30.642;2024-01-27T03:59:39;18.92;;;9.35;;
48925;SDS011;39838;59.938;30.642;2024-01-27T04:02:07;24.38;;;10.20;;
48925;SDS011;39838;59.938;30.642;2024-01-27T04:04:35;24.80;;;12.13;;
48925;SDS011;39838;59.938;30.642;2024-01-27T04:07:02;28.20;;;12.75;;
48925;SDS011;39838;59.938;30.642;2024-01-27T04:09:31;31.20;;;13.30;;
48925;SDS011;39838;59.938;30.642;2024-01-27T04:11:59;24.67;;;11.85;;
48925;SDS011;39838;59.938;30.642;2024-01-27T04:14:26;29.08;;;12.73;;
48925;SDS011;39838;59.938;30.642;2024-01-27T04:16:53;35.47;;;14.98;;
48925;SDS011;39838;59.938;30.642;2024-01-27T04:19:21;33.45;;;15.75;;
48925;SDS011;39838;59.938;30.642;2024-01-27T04:21:48;31.45;;;14.27;;
48925;SDS011;39838;59.938;30.642;2024-01-27T04:24:16;35.47;;;14.95;;
48925;SDS011;39838;59.938;30.642;2024-01-27T04:26:44;36.30;;;14.55;;
48925;SDS011;39838;59.938;30.642;2024-01-27T04:29:12;36.08;;;14.93;;
48925;SDS011;39838;59.938;30.642;2024-01-27T04:31:41;33.50;;;15.50;;
48925;SDS011;39838;59.938;30.642;2024-01-27T04:34:09;34.90;;;15.68;;
48925;SDS011;39838;59.938;30.642;2024-01-27T04:36:36;35.22;;;16.02;;
48925;SDS011;39838;59.938;30.642;2024-01-27T04:39:03;36.80;;;15.93;;
48925;SDS011;39838;59.938;30.642;2024-01-27T04:41:31;39.47;;;16.65;;
48925;SDS011;39838;59.938;30.642;2024-01-27T04:43:59;39.67;;;15.50;;
48925;SDS011;39838;59.938;30.642;2024-01-27T04:46:27;29.10;;;13.35;;
48925;SDS011;39838;59.938;30.642;2024-01-27T04:48:54;29.08;;;13.02;;
48925;SDS011;39838;59.938;30.642;2024-01-27T04:51:22;30.77;;;14.68;;
48925;SDS011;39838;59.938;30.642;2024-01-27T04:53:49;28.73;;;12.75;;
48925;SDS011;39838;59.938;30.642;2024-01-27T04:56:17;33.22;;;13.15;;
48925;SDS011;39838;59.938;30.642;2024-01-27T04:58:44;34.75;;;13.88;;
48925;SDS011;39838;59.938;30.642;2024-01-27T05:01:13;32.90;;;14.93;;
48925;SDS011;39838;59.938;30.642;2024-01-27T05:03:40;34.47;;;14.93;;
48925;SDS011;39838;59.938;30.642;2024-01-27T05:06:07;38.65;;;16.17;;
48925;SDS011;39838;59.938;30.642;2024-01-27T05:08:35;34.55;;;14.75;;
48925;SDS011;39838;59.938;30.642;2024-01-27T05:11:03;37.17;;;16.02;;
48925;SDS011;39838;59.938;30.642;2024-01-27T05:13:30;38.80;;;15.95;;
48925;SDS011;39838;59.938;30.642;2024-01-27T05:15:57;36.90;;;15.55;;
48925;SDS011;39838;59.938;30.642;2024-01-27T05:18:26;28.52;;;13.43;;
48925;SDS011;39838;59.938;30.642;2024-01-27T05:20:54;28.85;;;13.00;;
48925;SDS011;39838;59.938;30.642;2024-01-27T05:23:22;25.73;;;12.55;;
48925;SDS011;39838;59.938;30.642;2024-01-27T05:25:49;20.88;;;10.68;;
48925;SDS011;39838;59.938;30.642;2024-01-27T05:28:17;18.55;;;9.63;;
48925;SDS011;39838;59.938;30.642;2024-01-27T05:30:44;17.73;;;9.07;;
48925;SDS011;39838;59.938;30.642;2024-01-27T05:33:11;15.63;;;8.30;;
48925;SDS011;39838;59.938;30.642;2024-01-27T05:35:40;15.88;;;8.43;;
48925;SDS011;39838;59.938;30.642;2024-01-27T05:38:08;13.98;;;8.27;;
48925;SDS011;39838;59.938;30.642;2024-01-27T05:40:35;17.58;;;8.65;;
48925;SDS011;39838;59.938;30.642;2024-01-27T05:43:03;14.88;;;7.82;;
48925;SDS011;39838;59.938;30.642;2024-01-27T05:45:30;15.02;;;7.72;;
48925;SDS011;39838;59.938;30.642;2024-01-27T05:47:57;15.20;;;8.07;;
48925;SDS011;39838;59.938;30.642;2024-01-27T05:50:25;13.68;;;7.50;;
48925;SDS011;39838;59.938;30.642;2024-01-27T05:52:54;16.30;;;7.95;;
48925;SDS011;39838;59.938;30.642;2024-01-27T05:55:21;15.88;;;8.50;;
48925;SDS011;39838;59.938;30.642;2024-01-27T05:57:49;15.10;;;8.30;;
48925;SDS011;39838;59.938;30.642;2024-01-27T06:00:16;18.23;;;9.02;;
48925;SDS011;39838;59.938;30.642;2024-01-27T06:02:44;17.95;;;8.85;;
48925;SDS011;39838;59.938;30.642;2024-01-27T06:05:11;16.75;;;9.10;;
48925;SDS011;39838;59.938;30.642;2024-01-27T06:07:38;17.67;;;8.30;;
48925;SDS011;39838;59.938;30.642;2024-01-27T06:10:08;20.45;;;9.68;;
48925;SDS011;39838;59.938;30.642;2024-01-27T06:12:37;17.80;;;8.73;;
48925;SDS011;39838;59.938;30.642;2024-01-27T06:15:05;18.20;;;8.48;;
48925;SDS011;39838;59.938;30.642;2024-01-27T06:17:34;18.80;;;8.93;;
48925;SDS011;39838;59.938;30.642;2024-01-27T06:20:02;16.70;;;9.10;;
48925;SDS011;39838;59.938;30.642;2024-01-27T06:22:30;16.20;;;8.88;;
48925;SDS011;39838;59.938;30.642;2024-01-27T06:24:58;17.58;;;9.48;;
48925;SDS011;39838;59.938;30.642;2024-01-27T06:27:27;17.73;;;9.10;;
48925;SDS011;39838;59.938;30.642;2024-01-27T06:29:54;15.80;;;8.65;;
48925;SDS011;39838;59.938;30.642;2024-01-27T06:32:21;14.07;;;7.90;;
48925;SDS011;39838;59.938;30.642;2024-01-27T06:34:49;17.77;;;8.57;;
48925;SDS011;39838;59.938;30.642;2024-01-27T06:37:16;15.75;;;7.95;;
48925;SDS011;39838;59.938;30.642;2024-01-27T06:39:43;16.95;;;8.82;;
48925;SDS011;39838;59.938;30.642;2024-01-27T06:42:11;17.17;;;8.98;;
48925;SDS011;39838;59.938;30.642;2024-01-27T06:44:39;21.48;;;10.68;;
48925;SDS011;39838;59.938;30.642;2024-01-27T06:47:07;18.38;;;9.65;;
48925;SDS011;39838;59.938;30.642;2024-01-27T06:49:34;21.45;;;10.75;;
48925;SDS011;39838;59.938;30.642;2024-01-27T06:52:02;19.75;;;9.45;;
48925;SDS011;39838;59.938;30.642;2024-01-27T06:54:30;23.55;;;10.32;;
48925;SDS011;39838;59.938;30.642;2024-01-27T06:56:58;22.13;;;9.60;;
48925;SDS011;39838;59.938;30.642;2024-01-27T06:59:26;18.92;;;9.45;;
48925;SDS011;39838;59.938;30.642;2024-01-27T07:01:55;15.98;;;8.95;;
48925;SDS011;39838;59.938;30.642;2024-01-27T07:04:22;18.65;;;9.57;;
48925;SDS011;39838;59.938;30.642;2024-01-27T07:06:50;17.75;;;9.05;;
48925;SDS011;39838;59.938;30.642;2024-01-27T07:09:17;20.63;;;9.32;;
48925;SDS011;39838;59.938;30.642;2024-01-27T07:11:45;19.20;;;9.07;;
48925;SDS011;39838;59.938;30.642;2024-01-27T07:14:12;21.17;;;9.07;;
48925;SDS011;39838;59.938;30.642;2024-01-27T07:16:40;17.92;;;9.05;;
48925;SDS011;39838;59.938;30.642;2024-01-27T07:19:08;16.08;;;8.30;;
48925;SDS011;39838;59.938;30.642;2024-01-27T07:21:37;17.95;;;8.73;;
48925;SDS011;39838;59.938;30.642;2024-01-27T07:24:05;16.40;;;8.25;;
48925;SDS011;39838;59.938;30.642;2024-01-27T07:26:32;19.27;;;8.25;;
48925;SDS011;39838;59.938;30.642;2024-01-27T07:28:59;15.32;;;8.23;;
48925;SDS011;39838;59.938;30.642;2024-01-27T07:31:26;18.00;;;8.63;;
48925;SDS011;39838;59.938;30.642;2024-01-27T07:33:54;17.10;;;8.60;;
48925;SDS011;39838;59.938;30.642;2024-01-27T07:36:23;15.77;;;8.43;;
48925;SDS011;39838;59.938;30.642;2024-01-27T07:38:51;17.65;;;9.05;;
48925;SDS011;39838;59.938;30.642;2024-01-27T07:41:18;18.65;;;8.88;;
48925;SDS011;39838;59.938;30.642;2024-01-27T07:43:46;20.85;;;10.10;;
48925;SDS011;39838;59.938;30.642;2024-01-27T07:46:13;18.98;;;9.70;;
48925;SDS011;39838;59.938;30.642;2024-01-27T07:48:40;20.13;;;9.43;;
48925;SDS011;39838;59.938;30.642;2024-01-27T07:51:08;15.85;;;8.10;;
48925;SDS011;39838;59.938;30.642;2024-01-27T07:53:36;15.95;;;9.07;;
48925;SDS011;39838;59.938;30.642;2024-01-27T07:56:05;17.00;;;9.18;;
48925;SDS011;39838;59.938;30.642;2024-01-27T07:58:33;16.52;;;8.50;;
48925;SDS011;39838;59.938;30.642;2024-01-27T08:01:01;17.23;;;9.73;;
48925;SDS011;39838;59.938;30.642;2024-01-27T08:03:28;16.50;;;9.43;;
48925;SDS011;39838;59.938;30.642;2024-01-27T08:05:55;16.38;;;8.77;;
48925;SDS011;39838;59.938;30.642;2024-01-27T08:08:23;17.13;;;9.57;;
48925;SDS011;39838;59.938;30.642;2024-01-27T08:10:52;19.15;;;9.55;;
48925;SDS011;39838;59.938;30.642;2024-01-27T08:13:19;18.48;;;9.45;;
48925;SDS011;39838;59.938;30.642;2024-01-27T08:15:47;18.67;;;9.30;;
48925;SDS011;39838;59.938;30.642;2024-01-27T08:18:15;17.80;;;8.90;;
48925;SDS011;39838;59.938;30.642;2024-01-27T08:20:42;20.55;;;9.68;;
48925;SDS011;39838;59.938;30.642;2024-01-27T08:23:10;18.27;;;9.25;;
48925;SDS011;39838;59.938;30.642;2024-01-27T08:25:37;17.50;;;9.32;;
48925;SDS011;39838;59.938;30.642;2024-01-27T08:28:07;16.95;;;9.43;;
48925;SDS011;39838;59.938;30.642;2024-01-27T08:30:35;18.40;;;9.65;;
48925;SDS011;39838;59.938;30.642;2024-01-27T08:33:03;19.00;;;9.23;;
48925;SDS011;39838;59.938;30.642;2024-01-27T08:35:31;16.70;;;9.27;;
48925;SDS011;39838;59.938;30.642;2024-01-27T08:37:58;18.02;;;9.00;;
48925;SDS011;39838;59.938;30.642;2024-01-27T08:40:25;17.38;;;10.25;;
48925;SDS011;39838;59.938;30.642;2024-01-27T08:42:53;20.13;;;9.90;;
48925;SDS011;39838;59.938;30.642;2024-01-27T08:45:21;18.00;;;10.25;;
48925;SDS011;39838;59.938;30.642;2024-01-27T08:47:49;20.25;;;10.85;;
48925;SDS011;39838;59.938;30.642;2024-01-27T08:50:17;22.05;;;9.88;;
48925;SDS011;39838;59.938;30.642;2024-01-27T08:52:44;20.27;;;10.32;;
48925;SDS011;39838;59.938;30.642;2024-01-27T08:55:12;19.13;;;10.30;;
48925;SDS011;39838;59.938;30.642;2024-01-27T08:57:39;21.83;;;11.57;;
48925;SDS011;39838;59.938;30.642;2024-01-27T09:00:07;22.95;;;10.98;;
48925;SDS011;39838;59.938;30.642;2024-01-27T09:02:36;22.20;;;11.60;;
48925;SDS011;39838;59.938;30.642;2024-01-27T09:05:04;21.45;;;11.18;;
48925;SDS011;39838;59.938;30.642;2024-01-27T09:07:32;19.63;;;10.98;;
48925;SDS011;39838;59.938;30.642;2024-01-27T09:10:00;20.00;;;11.02;;
48925;SDS011;39838;59.938;30.642;2024-01-27T09:12:29;22.58;;;11.10;;
48925;SDS011;39838;59.938;30.642;2024-01-27T09:14:56;22.15;;;11.20;;
48925;SDS011;39838;59.938;30.642;2024-01-27T09:17:24;19.35;;;11.65;;
48925;SDS011;39838;59.938;30.642;2024-01-27T09:19:53;25.80;;;12.95;;
48925;SDS011;39838;59.938;30.642;2024-01-27T09:22:20;27.73;;;14.23;;
48925;SDS011;39838;59.938;30.642;2024-01-27T09:24:48;24.70;;;13.25;;
48925;SDS011;39838;59.938;30.642;2024-01-27T09:27:15;24.67;;;13.40;;
48925;SDS011;39838;59.938;30.642;2024-01-27T09:29:44;24.75;;;13.77;;
48925;SDS011;39838;59.938;30.642;2024-01-27T09:32:11;28.67;;;14.05;;
48925;SDS011;39838;59.938;30.642;2024-01-27T09:34:39;23.48;;;12.95;;
48925;SDS011;39838;59.938;30.642;2024-01-27T09:37:07;25.85;;;13.80;;
48925;SDS011;39838;59.938;30.642;2024-01-27T09:39:35;28.60;;;14.35;;
48925;SDS011;39838;59.938;30.642;2024-01-27T09:42:03;28.08;;;14.27;;
48925;SDS011;39838;59.938;30.642;2024-01-27T09:44:33;26.33;;;13.13;;
48925;SDS011;39838;59.938;30.642;2024-01-27T09:47:01;28.33;;;14.15;;
48925;SDS011;39838;59.938;30.642;2024-01-27T09:49:31;25.10;;;13.23;;
48925;SDS011;39838;59.938;30.642;2024-01-27T09:51:59;27.02;;;13.65;;
48925;SDS011;39838;59.938;30.642;2024-01-27T09:54:27;25.98;;;13.45;;
48925;SDS011;39838;59.938;30.642;2024-01-27T09:56:55;27.13;;;13.75;;
48925;SDS011;39838;59.938;30.642;2024-01-27T09:59:21;23.77;;;12.77;;
48925;SDS011;39838;59.938;30.642;2024-01-27T10:01:50;26.65;;;13.15;;
48925;SDS011;39838;59.938;30.642;2024-01-27T10:04:21;25.45;;;13.07;;
48925;SDS011;39838;59.938;30.642;2024-01-27T10:06:49;26.10;;;13.75;;
48925;SDS011;39838;59.938;30.642;2024-01-27T10:09:17;25.25;;;12.48;;
48925;SDS011;39838;59.938;30.642;2024-01-27T10:11:46;26.10;;;13.00;;
48925;SDS011;39838;59.938;30.642;2024-01-27T10:14:14;23.88;;;12.50;;
48925;SDS011;39838;59.938;30.642;2024-01-27T10:16:41;24.70;;;12.98;;
48925;SDS011;39838;59.938;30.642;2024-01-27T10:19:12;25.40;;;13.00;;
48925;SDS011;39838;59.938;30.642;2024-01-27T10:21:43;25.70;;;13.35;;
48925;SDS011;39838;59.938;30.642;2024-01-27T10:24:11;25.85;;;13.18;;
48925;SDS011;39838;59.938;30.642;2024-01-27T10:26:39;24.00;;;12.43;;
48925;SDS011;39838;59.938;30.642;2024-01-27T10:29:07;24.42;;;12.57;;
48925;SDS011;39838;59.938;30.642;2024-01-27T10:31:35;26.48;;;12.68;;
48925;SDS011;39838;59.938;30.642;2024-01-27T10:34:03;24.77;;;12.77;;
48925;SDS011;39838;59.938;30.642;2024-01-27T10:36:40;23.75;;;13.02;;
48925;SDS011;39838;59.938;30.642;2024-01-27T10:39:17;23.40;;;13.07;;
48925;SDS011;39838;59.938;30.642;2024-01-27T10:41:47;28.23;;;14.02;;
48925;SDS011;39838;59.938;30.642;2024-01-27T10:44:17;25.83;;;13.25;;
48925;SDS011;39838;59.938;30.642;2024-01-27T10:46:45;23.50;;;12.88;;
48925;SDS011;39838;59.938;30.642;2024-01-27T10:49:14;26.05;;;13.23;;
48925;SDS011;39838;59.938;30.642;2024-01-27T10:51:43;24.30;;;13.18;;
48925;SDS011;39838;59.938;30.642;2024-01-27T10:54:14;24.33;;;13.68;;
48925;SDS011;39838;59.938;30.642;2024-01-27T10:56:47;22.48;;;12.27;;
48925;SDS011;39838;59.938;30.642;2024-01-27T10:59:16;23.65;;;12.45;;
48925;SDS011;39838;59.938;30.642;2024-01-27T11:01:48;22.15;;;12.48;;
48925;SDS011;39838;59.938;30.642;2024-01-27T11:04:17;24.23;;;12.52;;
48925;SDS011;39838;59.938;30.642;2024-01-27T11:06:46;24.55;;;12.68;;
48925;SDS011;39838;59.938;30.642;2024-01-27T11:09:15;24.25;;;12.30;;
48925;SDS011;39838;59.938;30.642;2024-01-27T11:11:44;21.67;;;11.95;;
48925;SDS011;39838;59.938;30.642;2024-01-27T11:14:13;23.60;;;12.23;;
48925;SDS011;39838;59.938;30.642;2024-01-27T11:16:42;22.85;;;12.30;;
48925;SDS011;39838;59.938;30.642;2024-01-27T11:19:12;27.88;;;13.05;;
48925;SDS011;39838;59.938;30.642;2024-01-27T11:21:40;23.42;;;12.80;;
48925;SDS011;39838;59.938;30.642;2024-01-27T11:24:14;23.92;;;12.98;;
48925;SDS011;39838;59.938;30.642;2024-01-27T11:26:42;23.90;;;13.15;;
48925;SDS011;39838;59.938;30.642;2024-01-27T11:29:10;26.77;;;13.90;;
48925;SDS011;39838;59.938;30.642;2024-01-27T11:31:46;23.05;;;12.75;;
48925;SDS011;39838;59.938;30.642;2024-01-27T11:34:17;22.33;;;12.80;;
48925;SDS011;39838;59.938;30.642;2024-01-27T11:36:45;24.83;;;12.43;;
48925;SDS011;39838;59.938;30.642;2024-01-27T11:39:27;22.60;;;12.80;;
48925;SDS011;39838;59.938;30.642;2024-01-27T11:42:04;23.80;;;13.77;;
48925;SDS011;39838;59.938;30.642;2024-01-27T11:44:33;24.45;;;12.38;;
48925;SDS011;39838;59.938;30.642;2024-01-27T11:47:03;23.40;;;13.27;;
48925;SDS011;39838;59.938;30.642;2024-01-27T11:49:32;25.40;;;13.57;;
48925;SDS011;39838;59.938;30.642;2024-01-27T11:52:00;22.58;;;13.13;;
48925;SDS011;39838;59.938;30.642;2024-01-27T11:54:27;23.65;;;13.38;;
48925;SDS011;39838;59.938;30.642;2024-01-27T11:56:54;23.70;;;13.27;;
48925;SDS011;39838;59.938;30.642;2024-01-27T11:59:22;26.38;;;12.88;;
48925;SDS011;39838;59.938;30.642;2024-01-27T12:01:49;24.23;;;13.25;;
48925;SDS011;39838;59.938;30.642;2024-01-27T12:04:19;26.30;;;13.18;;
48925;SDS011;39838;59.938;30.642;2024-01-27T12:06:46;23.27;;;12.77;;
48925;SDS011;39838;59.938;30.642;2024-01-27T12:09:15;25.45;;;13.65;;
48925;SDS011;39838;59.938;30.642;2024-01-27T12:11:43;24.63;;;13.25;;
48925;SDS011;39838;59.938;30.642;2024-01-27T12:14:11;23.70;;;12.50;;
48925;SDS011;39838;59.938;30.642;2024-01-27T12:16:39;24.45;;;13.52;;
48925;SDS011;39838;59.938;30.642;2024-01-27T12:19:09;23.65;;;13.32;;
48925;SDS011;39838;59.938;30.642;2024-01-27T12:21:46;25.50;;;14.13;;
48925;SDS011;39838;59.938;30.642;2024-01-27T12:24:15;24.65;;;13.88;;
48925;SDS011;39838;59.938;30.642;2024-01-27T12:26:42;24.23;;;12.85;;
48925;SDS011;39838;59.938;30.642;2024-01-27T12:29:09;23.88;;;13.15;;
48925;SDS011;39838;59.938;30.642;2024-01-27T12:31:37;24.90;;;13.13;;
48925;SDS011;39838;59.938;30.642;2024-01-27T12:34:04;26.15;;;14.50;;
48925;SDS011;39838;59.938;30.642;2024-01-27T12:36:32;28.00;;;14.85;;
48925;SDS011;39838;59.938;30.642;2024-01-27T12:39:01;33.65;;;15.70;;
48925;SDS011;39838;59.938;30.642;2024-01-27T12:41:30;27.80;;;15.10;;
48925;SDS011;39838;59.938;30.642;2024-01-27T12:43:59;33.05;;;14.68;;
48925;SDS011;39838;59.938;30.642;2024-01-27T12:46:27;28.08;;;15.50;;
48925;SDS011;39838;59.938;30.642;2024-01-27T12:48:54;27.88;;;14.02;;
48925;SDS011;39838;59.938;30.642;2024-01-27T12:51:22;27.95;;;14.32;;
48925;SDS011;39838;59.938;30.642;2024-01-27T12:53:49;27.40;;;13.75;;
48925;SDS011;39838;59.938;30.642;2024-01-27T12:56:18;27.13;;;14.52;;
48925;SDS011;39838;59.938;30.642;2024-01-27T12:58:46;24.85;;;12.95;;
48925;SDS011;39838;59.938;30.642;2024-01-27T13:01:14;26.27;;;14.43;;
48925;SDS011;39838;59.938;30.642;2024-01-27T13:03:41;28.77;;;13.80;;
48925;SDS011;39838;59.938;30.642;2024-01-27T13:06:08;31.30;;;14.32;;
48925;SDS011;39838;59.938;30.642;2024-01-27T13:08:36;24.35;;;13.98;;
48925;SDS011;39838;59.938;30.642;2024-01-27T13:11:03;24.48;;;13.27;;
48925;SDS011;39838;59.938;30.642;2024-01-27T13:13:32;27.08;;;13.35;;
48925;SDS011;39838;59.938;30.642;2024-01-27T13:15:59;27.42;;;14.52;;
48925;SDS011;39838;59.938;30.642;2024-01-27T13:18:27;26.27;;;13.80;;
48925;SDS011;39838;59.938;30.642;2024-01-27T13:20:54;29.95;;;14.55;;
48925;SDS011;39838;59.938;30.642;2024-01-27T13:23:22;27.40;;;15.38;;
48925;SDS011;39838;59.938;30.642;2024-01-27T13:25:49;26.73;;;14.32;;
48925;SDS011;39838;59.938;30.642;2024-01-27T13:28:17;28.48;;;15.07;;
48925;SDS011;39838;59.938;30.642;2024-01-27T13:30:46;27.75;;;14.93;;
48925;SDS011;39838;59.938;30.642;2024-01-27T13:33:14;25.35;;;13.38;;
48925;SDS011;39838;59.938;30.642;2024-01-27T13:35:43;24.42;;;13.70;;
48925;SDS011;39838;59.938;30.642;2024-01-27T13:38:12;27.63;;;14.25;;
48925;SDS011;39838;59.938;30.642;2024-01-27T13:40:40;26.88;;;14.18;;
48925;SDS011;39838;59.938;30.642;2024-01-27T13:43:07;27.73;;;15.13;;
48925;SDS011;39838;59.938;30.642;2024-01-27T13:45:35;27.08;;;14.27;;
48925;SDS011;39838;59.938;30.642;2024-01-27T13:48:04;26.60;;;14.80;;
48925;SDS011;39838;59.938;30.642;2024-01-27T13:50:32;27.27;;;14.68;;
48925;SDS011;39838;59.938;30.642;2024-01-27T13:53:00;30.17;;;14.90;;
48925;SDS011;39838;59.938;30.642;2024-01-27T13:55:27;27.25;;;15.07;;
48925;SDS011;39838;59.938;30.642;2024-01-27T13:57:54;27.23;;;14.48;;
48925;SDS011;39838;59.938;30.642;2024-01-27T14:00:21;25.98;;;14.43;;
48925;SDS011;39838;59.938;30.642;2024-01-27T14:02:49;27.80;;;14.20;;
48925;SDS011;39838;59.938;30.642;2024-01-27T14:05:17;27.48;;;14.43;;
48925;SDS011;39838;59.938;30.642;2024-01-27T14:07:45;29.55;;;14.70;;
48925;SDS011;39838;59.938;30.642;2024-01-27T14:10:13;31.60;;;15.95;;
48925;SDS011;39838;59.938;30.642;2024-01-27T14:12:42;30.95;;;16.48;;
48925;SDS011;39838;59.938;30.642;2024-01-27T14:15:10;31.77;;;17.27;;
48925;SDS011;39838;59.938;30.642;2024-01-27T14:17:38;32.50;;;17.00;;